Time;durP1;ratioP1;P1;durP2;ratioP2;P2;SDS_P1;SDS_P2;PMS_P1;PMS_P2;Temp;Humidity;BMP_temperature;BMP_pressure;BME280_temperature;BME280_humidity;BME280_pressure;Samples;Min_cycle;Max_cycle;Signal;HPM_P1;HPM_P2
2021/12/01 00:01:44;;;;;;;3.67;3.47;;;1.60;99.90;;;;;;5018790;28;20600;-76
2021/12/01 00:04:11;;;;;;;3.92;3.70;;;1.60;99.90;;;;;;5026911;28;20223;-78
2021/12/01 00:06:38;;;;;;;3.75;3.55;;;1.60;99.90;;;;;;5022723;28;20242;-77
2021/12/01 00:09:05;;;;;;;4.15;3.85;;;1.60;99.90;;;;;;5021874;28;20243;-77
2021/12/01 00:11:33;;;;;;;3.55;3.35;;;1.60;99.90;;;;;;4997003;22;20256;-74
2021/12/01 00:14:00;;;;;;;3.90;3.67;;;1.60;99.90;;;;;;5066364;28;20237;-74
2021/12/01 00:16:28;;;;;;;3.30;3.10;;;1.60;99.90;;;;;;5052412;28;20219;-74
2021/12/01 00:18:55;;;;;;;3.72;3.53;;;1.50;99.90;;;;;;5062271;28;20229;-74
2021/12/01 00:21:22;;;;;;;3.60;3.40;;;1.50;99.90;;;;;;5054808;28;20552;-74
2021/12/01 00:23:49;;;;;;;4.35;4.05;;;1.50;99.90;;;;;;5044691;28;20282;-74
2021/12/01 00:26:17;;;;;;;4.20;3.92;;;1.50;99.90;;;;;;5038192;28;20456;-74
2021/12/01 00:28:44;;;;;;;3.63;3.42;;;1.60;99.90;;;;;;5039978;28;20238;-76
2021/12/01 00:31:11;;;;;;;4.05;3.75;;;1.60;99.90;;;;;;5039328;28;20236;-74
2021/12/01 00:33:41;;;;;;;4.07;3.78;;;1.60;99.90;;;;;;5043325;28;20236;-74
2021/12/01 00:36:13;;;;;;;3.20;3.00;;;1.60;99.90;;;;;;5039182;28;20229;-74
2021/12/01 00:38:41;;;;;;;3.47;3.28;;;1.60;99.90;;;;;;5037466;28;20234;-74
2021/12/01 00:41:09;;;;;;;3.83;3.63;;;1.60;99.90;;;;;;5031801;28;20243;-75
2021/12/01 00:43:39;;;;;;;3.38;3.17;;;1.60;99.90;;;;;;5042462;28;20254;-74
2021/12/01 00:46:13;;;;;;;3.58;3.38;;;1.60;99.90;;;;;;5041989;28;20323;-73
2021/12/01 00:48:42;;;;;;;3.50;3.30;;;1.60;99.90;;;;;;5037982;28;20343;-74
2021/12/01 00:51:09;;;;;;;3.80;3.60;;;1.60;99.90;;;;;;5036010;28;20242;-74
2021/12/01 00:53:37;;;;;;;4.00;3.67;;;1.70;99.90;;;;;;5038909;28;20704;-74
2021/12/01 00:56:05;;;;;;;4.30;4.00;;;1.70;99.90;;;;;;5035299;28;20237;-74
2021/12/01 00:58:32;;;;;;;4.43;4.03;;;1.70;99.90;;;;;;5028784;28;20237;-74
2021/12/01 01:01:01;;;;;;;4.13;3.83;;;1.50;99.90;;;;;;5038978;28;20713;-74
2021/12/01 01:03:30;;;;;;;4.13;3.90;;;1.40;99.90;;;;;;5032569;28;20223;-74
2021/12/01 01:05:59;;;;;;;4.45;4.07;;;1.30;99.90;;;;;;5030510;28;20238;-74
2021/12/01 01:08:26;;;;;;;3.95;3.75;;;1.30;99.90;;;;;;5033456;28;20532;-74
2021/12/01 01:16:37;;;;;;;3.40;3.20;;;1.30;99.90;;;;;;5034746;28;20258;-74
2021/12/01 01:19:07;;;;;;;4.15;3.85;;;1.40;99.90;;;;;;5039861;28;20222;-74
2021/12/01 01:21:41;;;;;;;4.30;4.00;;;1.40;99.90;;;;;;5040167;28;20234;-74
2021/12/01 01:24:08;;;;;;;4.30;3.83;;;1.30;99.90;;;;;;5035869;28;20241;-73
2021/12/01 01:26:36;;;;;;;3.65;3.45;;;1.40;99.90;;;;;;5031738;28;20238;-75
2021/12/01 01:29:04;;;;;;;3.88;3.67;;;1.40;99.90;;;;;;5032451;28;20238;-74
2021/12/01 01:31:31;;;;;;;3.90;3.70;;;1.40;99.90;;;;;;5032608;28;20238;-75
2021/12/01 01:33:59;;;;;;;4.07;3.78;;;1.40;99.90;;;;;;5031367;28;20222;-74
2021/12/01 01:36:28;;;;;;;4.13;3.67;;;1.40;99.90;;;;;;5041969;28;20443;-75
2021/12/01 01:38:57;;;;;;;3.78;3.58;;;1.50;99.90;;;;;;5040766;28;20217;-74
2021/12/01 01:41:24;;;;;;;3.80;3.60;;;1.50;99.90;;;;;;5037337;28;20736;-75
2021/12/01 01:43:53;;;;;;;3.60;3.40;;;1.50;99.90;;;;;;5035715;28;20722;-74
2021/12/01 01:46:21;;;;;;;3.50;3.30;;;1.50;99.90;;;;;;5029414;28;20772;-73
2021/12/01 01:48:50;;;;;;;3.92;3.63;;;1.60;99.90;;;;;;5040089;28;20224;-75
2021/12/01 01:51:20;;;;;;;3.80;3.60;;;1.60;99.90;;;;;;5042997;28;20227;-74
2021/12/01 01:53:49;;;;;;;4.00;3.70;;;1.60;99.90;;;;;;5041786;28;20219;-73
2021/12/01 01:56:17;;;;;;;3.42;3.22;;;1.70;99.90;;;;;;5035566;28;20256;-74
2021/12/01 01:58:45;;;;;;;3.88;3.58;;;1.70;99.90;;;;;;5034718;28;20636;-74
2021/12/01 02:01:23;;;;;;;4.18;3.97;;;1.70;99.90;;;;;;5033688;28;20226;-74
2021/12/01 02:03:50;;;;;;;3.85;3.65;;;1.60;99.90;;;;;;5035887;28;20230;-74
2021/12/01 02:06:22;;;;;;;3.90;3.70;;;1.60;99.90;;;;;;5033416;28;20227;-74
2021/12/01 02:08:51;;;;;;;3.67;3.47;;;1.60;99.90;;;;;;5040230;28;20216;-76
2021/12/01 02:11:21;;;;;;;3.45;3.25;;;1.60;99.90;;;;;;5030711;28;20229;-73
2021/12/01 02:13:49;;;;;;;4.32;4.05;;;1.60;99.90;;;;;;5031320;28;20223;-75
2021/12/01 02:16:18;;;;;;;3.60;3.30;;;1.60;99.90;;;;;;5038510;28;20231;-74
2021/12/01 02:18:45;;;;;;;3.60;3.40;;;1.60;99.90;;;;;;5048929;28;20596;-74
2021/12/01 02:21:16;;;;;;;3.55;3.35;;;1.60;99.90;;;;;;5033174;28;20223;-75
2021/12/01 02:23:45;;;;;;;3.80;3.60;;;1.60;99.90;;;;;;5034410;28;20227;-74
2021/12/01 02:26:13;;;;;;;3.85;3.65;;;1.60;99.90;;;;;;5037438;28;20691;-74
2021/12/01 02:28:42;;;;;;;3.33;3.13;;;1.60;99.90;;;;;;5034656;28;20235;-74
2021/12/01 02:31:09;;;;;;;3.38;3.17;;;1.70;99.90;;;;;;5038910;28;20234;-74
2021/12/01 02:33:37;;;;;;;4.25;3.95;;;1.60;99.90;;;;;;5033474;28;20239;-75
2021/12/01 02:36:06;;;;;;;4.40;4.10;;;1.60;99.90;;;;;;5038681;28;20226;-74
2021/12/01 02:38:34;;;;;;;3.63;3.42;;;1.60;99.90;;;;;;5040226;28;20505;-77
2021/12/01 02:41:01;;;;;;;3.78;3.47;;;1.60;99.90;;;;;;5044397;28;20218;-74
2021/12/01 02:43:30;;;;;;;3.63;3.42;;;1.60;99.90;;;;;;5040683;28;20234;-74
2021/12/01 02:45:57;;;;;;;3.28;3.05;;;1.60;99.90;;;;;;5029111;28;20223;-74
2021/12/01 02:48:24;;;;;;;3.80;3.60;;;1.60;99.90;;;;;;5037103;28;20223;-74
2021/12/01 02:50:52;;;;;;;3.70;3.50;;;1.60;99.90;;;;;;5036649;28;20264;-75
2021/12/01 02:53:21;;;;;;;4.03;3.72;;;1.60;99.90;;;;;;5046487;28;20249;-74
2021/12/01 02:55:53;;;;;;;3.47;3.28;;;1.60;99.90;;;;;;5045014;28;20227;-74
2021/12/01 02:58:22;;;;;;;3.78;3.58;;;1.60;99.90;;;;;;5041980;28;20226;-75
2021/12/01 03:00:50;;;;;;;3.45;3.25;;;1.60;99.90;;;;;;5046881;28;20231;-76
2021/12/01 03:03:18;;;;;;;3.60;3.40;;;1.60;99.90;;;;;;5046045;28;20226;-74
2021/12/01 03:05:48;;;;;;;3.70;3.50;;;1.70;99.90;;;;;;5039488;28;20219;-74
2021/12/01 03:08:16;;;;;;;3.47;3.28;;;1.70;99.90;;;;;;5038092;28;20227;-77
2021/12/01 03:10:45;;;;;;;4.05;3.85;;;1.70;99.90;;;;;;5034392;28;20247;-73
2021/12/01 03:13:14;;;;;;;4.18;3.97;;;1.60;99.90;;;;;;5035609;28;20235;-74
2021/12/01 03:15:41;;;;;;;3.38;3.17;;;1.50;99.90;;;;;;5040851;28;20700;-74
2021/12/01 03:18:09;;;;;;;3.97;3.78;;;1.50;99.90;;;;;;5047283;28;20242;-74
2021/12/01 03:20:36;;;;;;;3.83;3.53;;;1.40;99.90;;;;;;5041301;28;20234;-74
2021/12/01 03:23:04;;;;;;;4.03;3.78;;;1.40;99.90;;;;;;5041772;28;20629;-74
2021/12/01 03:25:31;;;;;;;3.95;3.65;;;1.40;99.90;;;;;;5047494;28;20237;-74
2021/12/01 03:27:58;;;;;;;3.60;3.40;;;1.40;99.90;;;;;;5040411;28;20422;-74
2021/12/01 03:30:26;;;;;;;3.60;3.40;;;1.40;99.90;;;;;;5040563;28;20223;-74
2021/12/01 03:32:54;;;;;;;3.90;3.60;;;1.30;99.90;;;;;;5041588;28;20222;-74
2021/12/01 03:35:21;;;;;;;3.55;3.35;;;1.30;99.90;;;;;;5041844;28;20219;-74
2021/12/01 03:37:48;;;;;;;4.30;4.00;;;1.30;99.90;;;;;;5035139;28;20223;-74
2021/12/01 03:40:16;;;;;;;3.65;3.45;;;1.30;99.90;;;;;;5037322;28;20644;-74
2021/12/01 03:42:44;;;;;;;3.58;3.38;;;1.30;99.90;;;;;;5039066;28;20236;-75
2021/12/01 03:45:13;;;;;;;3.72;3.53;;;1.30;99.90;;;;;;5037049;28;20260;-74
2021/12/01 03:47:42;;;;;;;3.47;3.28;;;1.30;99.90;;;;;;5036635;28;20238;-74
2021/12/01 03:50:10;;;;;;;3.67;3.47;;;1.30;99.90;;;;;;5041297;28;20238;-74
2021/12/01 03:52:38;;;;;;;3.78;3.58;;;1.30;99.90;;;;;;5035946;28;20309;-75
2021/12/01 03:55:07;;;;;;;3.92;3.72;;;1.30;99.90;;;;;;5037173;28;20219;-74
2021/12/01 03:57:34;;;;;;;3.88;3.60;;;1.30;99.90;;;;;;5033925;28;20220;-74
2021/12/01 04:00:02;;;;;;;3.72;3.53;;;1.30;99.90;;;;;;5033213;28;20250;-75
2021/12/01 04:02:29;;;;;;;3.72;3.53;;;1.30;99.90;;;;;;5036299;28;20227;-74
2021/12/01 04:04:58;;;;;;;4.10;3.80;;;1.20;99.90;;;;;;5037146;28;20605;-74
2021/12/01 04:07:25;;;;;;;3.60;3.40;;;1.30;99.90;;;;;;5041883;28;20627;-75
2021/12/01 04:09:52;;;;;;;4.18;3.95;;;1.20;99.90;;;;;;5039723;28;20219;-74
2021/12/01 04:12:20;;;;;;;3.80;3.47;;;1.30;99.90;;;;;;5034321;28;20611;-74
2021/12/01 04:14:47;;;;;;;3.92;3.72;;;1.30;99.90;;;;;;5037144;28;20223;-74
2021/12/01 04:17:14;;;;;;;4.43;4.10;;;1.30;99.90;;;;;;5038633;28;20524;-74
2021/12/01 04:19:41;;;;;;;4.63;4.32;;;1.30;99.90;;;;;;5045360;28;20232;-75
2021/12/01 04:22:10;;;;;;;3.63;3.42;;;1.30;99.90;;;;;;5037739;28;20234;-75
2021/12/01 04:24:37;;;;;;;4.22;4.03;;;1.30;99.90;;;;;;5034780;28;20231;-74
2021/12/01 04:27:05;;;;;;;3.63;3.42;;;1.30;99.90;;;;;;5038495;28;20521;-74
2021/12/01 04:29:32;;;;;;;4.38;4.07;;;1.30;99.90;;;;;;5041305;28;20309;-76
2021/12/01 04:31:59;;;;;;;4.18;3.88;;;1.20;99.90;;;;;;5034392;28;20231;-74
2021/12/01 04:34:26;;;;;;;3.70;3.50;;;1.20;99.90;;;;;;5040879;28;20253;-74
2021/12/01 04:36:53;;;;;;;3.60;3.40;;;1.20;99.90;;;;;;5033091;28;20710;-75
2021/12/01 04:39:22;;;;;;;3.83;3.63;;;1.20;99.90;;;;;;5037950;28;20230;-76
2021/12/01 04:41:52;;;;;;;3.47;3.28;;;1.20;99.90;;;;;;5037049;28;20434;-74
2021/12/01 04:44:20;;;;;;;3.88;3.67;;;1.20;99.90;;;;;;5039288;28;20233;-74
2021/12/01 04:46:48;;;;;;;3.97;3.67;;;1.20;99.90;;;;;;5037493;28;20219;-76
2021/12/01 04:49:19;;;;;;;4.07;3.88;;;1.20;99.90;;;;;;5036236;28;20227;-75
2021/12/01 04:51:48;;;;;;;3.63;3.40;;;1.30;99.90;;;;;;5039148;28;20235;-75
2021/12/01 04:54:16;;;;;;;3.28;3.08;;;1.30;99.90;;;;;;5035782;28;20738;-74
2021/12/01 04:56:48;;;;;;;4.03;3.72;;;1.30;99.90;;;;;;5038434;28;20223;-74
2021/12/01 04:59:16;;;;;;;4.25;3.90;;;1.30;99.90;;;;;;5033716;28;20228;-75
2021/12/01 05:01:43;;;;;;;4.28;3.97;;;1.20;99.90;;;;;;5031707;28;20234;-75
2021/12/01 05:04:11;;;;;;;3.83;3.63;;;1.20;99.90;;;;;;5036196;28;20230;-76
2021/12/01 05:06:39;;;;;;;3.85;3.65;;;1.20;99.90;;;;;;5039093;28;20258;-74
2021/12/01 05:09:07;;;;;;;3.80;3.50;;;1.10;99.90;;;;;;5037609;28;20687;-75
2021/12/01 05:11:34;;;;;;;3.60;3.40;;;1.10;99.90;;;;;;5031298;28;20798;-75
2021/12/01 05:14:03;;;;;;;3.65;3.45;;;1.10;99.90;;;;;;5040531;28;20238;-76
2021/12/01 05:16:30;;;;;;;3.58;3.38;;;1.10;99.90;;;;;;5039595;28;20229;-75
2021/12/01 05:18:57;;;;;;;3.60;3.40;;;1.20;99.90;;;;;;5044303;28;20230;-74
2021/12/01 05:21:24;;;;;;;4.28;3.97;;;1.40;99.90;;;;;;5035806;28;20227;-75
2021/12/01 05:23:51;;;;;;;3.72;3.42;;;1.70;99.90;;;;;;5037644;28;20234;-76
2021/12/01 05:26:19;;;;;;;4.50;4.20;;;2.00;99.90;;;;;;5033769;28;20231;-75
2021/12/01 05:28:46;;;;;;;4.13;3.75;;;1.90;99.90;;;;;;5036962;28;20310;-75
2021/12/01 05:31:15;;;;;;;4.25;3.95;;;1.80;99.90;;;;;;5033283;28;20239;-76
2021/12/01 05:33:42;;;;;;;3.97;3.78;;;1.70;99.90;;;;;;5035351;28;20226;-73
2021/12/01 05:36:10;;;;;;;4.80;4.50;;;1.60;99.90;;;;;;5030966;28;20223;-75
2021/12/01 05:38:37;;;;;;;4.50;4.10;;;1.50;99.90;;;;;;5039659;28;20854;-75
2021/12/01 05:41:05;;;;;;;4.20;3.95;;;1.50;99.90;;;;;;5034285;28;20237;-75
2021/12/01 05:43:32;;;;;;;3.63;3.42;;;1.40;99.90;;;;;;5032336;28;20258;-75
2021/12/01 05:46:00;;;;;;;4.90;4.45;;;1.40;99.90;;;;;;5035105;28;20218;-75
2021/12/01 05:48:28;;;;;;;4.07;3.83;;;1.40;99.90;;;;;;5036790;28;20234;-74
2021/12/01 05:50:55;;;;;;;4.30;4.00;;;1.40;99.90;;;;;;5013421;28;20222;-75
2021/12/01 05:53:23;;;;;;;4.40;4.13;;;1.40;99.90;;;;;;5033182;28;20226;-75
2021/12/01 05:55:51;;;;;;;4.47;4.18;;;1.40;99.90;;;;;;5042164;28;20226;-75
2021/12/01 05:58:18;;;;;;;4.80;4.50;;;1.40;99.90;;;;;;5032634;28;20223;-75
2021/12/01 06:00:45;;;;;;;4.00;3.70;;;1.40;99.90;;;;;;5032314;28;20226;-75
2021/12/01 06:03:12;;;;;;;4.43;4.13;;;1.20;99.90;;;;;;5030370;28;20235;-74
2021/12/01 06:05:43;;;;;;;4.30;4.00;;;1.10;99.90;;;;;;5043716;28;20230;-75
2021/12/01 06:08:10;;;;;;;5.20;4.90;;;1.00;99.90;;;;;;5033584;28;20272;-74
2021/12/01 06:10:39;;;;;;;5.75;5.35;;;1.00;99.90;;;;;;5037129;28;20605;-75
2021/12/01 06:13:07;;;;;;;4.70;4.40;;;0.90;99.90;;;;;;5041321;22;20235;-75
2021/12/01 06:15:34;;;;;;;4.75;4.45;;;0.80;99.90;;;;;;5038379;28;20586;-76
2021/12/01 06:18:01;;;;;;;4.28;3.97;;;0.70;99.90;;;;;;5038801;28;20226;-77
2021/12/01 06:20:28;;;;;;;4.35;4.05;;;0.70;99.90;;;;;;5041793;28;20231;-76
2021/12/01 06:22:57;;;;;;;5.00;4.70;;;0.70;99.90;;;;;;5043028;28;20234;-76
2021/12/01 06:25:25;;;;;;;4.88;4.57;;;0.70;99.90;;;;;;5039622;28;20230;-76
2021/12/01 06:27:53;;;;;;;4.45;4.13;;;0.70;99.90;;;;;;5040977;28;20306;-78
2021/12/01 06:30:21;;;;;;;4.50;4.25;;;0.70;99.90;;;;;;5037402;28;20301;-76
2021/12/01 06:32:48;;;;;;;4.38;3.97;;;0.70;99.90;;;;;;5038048;28;20250;-76
2021/12/01 06:35:16;;;;;;;4.55;4.15;;;0.70;99.90;;;;;;5044959;28;20317;-76
2021/12/01 06:37:43;;;;;;;4.63;4.32;;;0.70;99.90;;;;;;5049813;28;20249;-79
2021/12/01 06:40:13;;;;;;;4.63;4.32;;;0.70;99.90;;;;;;5045959;28;20225;-77
2021/12/01 06:42:40;;;;;;;4.63;4.32;;;0.70;99.90;;;;;;5047268;28;20709;-77
2021/12/01 06:45:12;;;;;;;4.72;4.43;;;0.70;99.90;;;;;;5046718;28;20230;-77
2021/12/01 06:47:40;;;;;;;5.07;4.78;;;0.70;99.90;;;;;;5045605;28;20222;-76
2021/12/01 06:50:09;;;;;;;4.72;4.43;;;0.70;99.90;;;;;;5047534;28;20241;-76
2021/12/01 06:52:38;;;;;;;4.85;4.50;;;0.70;99.90;;;;;;5047281;28;20315;-76
2021/12/01 06:55:07;;;;;;;4.85;4.55;;;0.60;99.90;;;;;;5046137;28;20853;-77
2021/12/01 06:57:36;;;;;;;5.10;4.70;;;0.40;99.90;;;;;;5047412;28;20222;-76
2021/12/01 07:00:06;;;;;;;4.60;4.40;;;0.30;99.90;;;;;;5043702;28;20214;-78
2021/12/01 07:02:33;;;;;;;4.57;4.28;;;0.30;99.90;;;;;;5047102;28;20226;-76
2021/12/01 07:05:00;;;;;;;5.03;4.70;;;0.40;99.90;;;;;;5046084;28;20230;-76
2021/12/01 07:07:27;;;;;;;5.05;4.75;;;0.40;99.90;;;;;;5046421;28;20222;-76
2021/12/01 07:09:54;;;;;;;4.68;4.38;;;0.50;99.90;;;;;;5047847;28;20230;-77
2021/12/01 07:12:22;;;;;;;4.60;4.30;;;0.60;99.90;;;;;;5045806;28;20755;-77
2021/12/01 07:14:51;;;;;;;4.00;3.78;;;0.60;99.90;;;;;;5047316;28;20238;-76
2021/12/01 07:17:19;;;;;;;4.57;4.28;;;0.70;99.90;;;;;;5045166;28;20231;-78
2021/12/01 07:19:48;;;;;;;5.20;4.80;;;0.70;99.90;;;;;;5045738;28;20250;-76
2021/12/01 07:22:15;;;;;;;4.80;4.45;;;0.70;99.90;;;;;;5048904;28;20956;-75
2021/12/01 07:24:42;;;;;;;5.07;4.68;;;0.80;99.90;;;;;;5048482;28;20265;-77
2021/12/01 07:27:10;;;;;;;6.03;5.43;;;0.70;99.90;;;;;;5046453;28;20241;-77
2021/12/01 07:29:37;;;;;;;7.40;5.38;;;0.60;99.90;;;;;;5045905;28;20238;-76
2021/12/01 07:32:07;;;;;;;4.90;4.50;;;0.40;99.90;;;;;;5046231;28;20306;-78
2021/12/01 07:34:41;;;;;;;5.25;4.85;;;0.30;99.90;;;;;;5046953;28;20226;-77
2021/12/01 07:37:08;;;;;;;6.05;5.55;;;0.30;99.90;;;;;;5038908;28;20281;-78
2021/12/01 07:39:35;;;;;;;7.20;6.18;;;0.30;99.90;;;;;;5046601;28;20693;-77
2021/12/01 07:42:03;;;;;;;6.60;6.00;;;0.30;99.90;;;;;;5047195;28;20226;-77
2021/12/01 07:44:30;;;;;;;7.35;6.57;;;0.30;99.90;;;;;;5046572;28;20564;-77
2021/12/01 07:46:57;;;;;;;6.05;5.55;;;0.40;99.90;;;;;;5043933;28;20249;-77
2021/12/01 07:49:26;;;;;;;6.00;5.50;;;0.40;99.90;;;;;;5046763;28;20767;-78
2021/12/01 07:51:53;;;;;;;6.85;6.28;;;0.40;99.90;;;;;;5049149;28;20223;-78
2021/12/01 07:54:21;;;;;;;6.60;6.00;;;0.50;99.90;;;;;;5043777;28;20848;-78
2021/12/01 07:56:48;;;;;;;6.88;6.28;;;0.50;99.90;;;;;;5047239;28;20222;-78
2021/12/01 07:59:18;;;;;;;7.28;5.85;;;0.60;99.90;;;;;;5048219;28;20238;-77
2021/12/01 08:01:45;;;;;;;6.55;5.95;;;0.50;99.90;;;;;;5047149;28;20245;-77
2021/12/01 08:04:13;;;;;;;8.70;7.22;;;0.50;99.90;;;;;;5046760;28;20235;-77
2021/12/01 08:06:43;;;;;;;11.68;8.82;;;0.80;99.90;;;;;;5046164;28;20250;-78
2021/12/01 08:09:11;;;;;;;7.88;7.18;;;1.70;99.90;;;;;;5045917;28;20693;-78
2021/12/01 08:11:39;;;;;;;8.88;7.72;;;2.70;99.90;;;;;;5045734;28;20230;-80
2021/12/01 08:14:07;;;;;;;8.35;7.53;;;3.40;99.90;;;;;;5046177;28;20285;-78
2021/12/01 08:16:34;;;;;;;6.80;6.18;;;4.10;99.90;;;;;;5043674;28;20709;-76
2021/12/01 08:19:02;;;;;;;7.45;6.65;;;4.60;99.90;;;;;;5045971;28;20250;-79
2021/12/01 08:21:29;;;;;;;7.60;5.95;;;5.10;99.90;;;;;;5044861;28;20230;-79
2021/12/01 08:23:57;;;;;;;6.50;6.00;;;5.50;99.90;;;;;;5050000;28;20226;-77
2021/12/01 08:26:25;;;;;;;6.88;6.22;;;5.80;99.90;;;;;;5044742;28;20219;-78
2021/12/01 08:28:52;;;;;;;7.72;6.80;;;6.10;99.90;;;;;;5045475;28;20226;-78
2021/12/01 08:31:20;;;;;;;6.40;5.80;;;6.40;99.90;;;;;;5042443;28;20237;-75
2021/12/01 08:33:49;;;;;;;6.22;5.63;;;6.70;99.90;;;;;;5046404;28;20215;-77
2021/12/01 08:36:17;;;;;;;5.75;5.25;;;7.10;99.90;;;;;;5048237;28;20626;-78
2021/12/01 08:38:45;;;;;;;6.95;5.50;;;7.20;99.90;;;;;;5043642;28;20619;-79
2021/12/01 08:41:13;;;;;;;6.75;5.43;;;7.40;99.90;;;;;;5042492;28;20222;-79
2021/12/01 08:43:41;;;;;;;6.53;5.93;;;7.70;99.90;;;;;;5043545;28;20238;-78
2021/12/01 08:46:08;;;;;;;5.45;4.95;;;7.80;99.90;;;;;;5045396;28;20234;-77
2021/12/01 08:48:37;;;;;;;6.50;5.45;;;7.90;99.90;;;;;;5045034;28;20245;-78
2021/12/01 08:51:05;;;;;;;5.82;4.97;;;8.10;99.90;;;;;;5045204;28;20215;-76
2021/12/01 08:53:34;;;;;;;6.05;5.22;;;8.40;99.90;;;;;;5045599;28;20241;-76
2021/12/01 08:56:02;;;;;;;5.43;4.93;;;8.60;99.90;;;;;;5043343;28;20225;-76
2021/12/01 08:58:31;;;;;;;8.40;4.85;;;8.90;99.90;;;;;;5046333;28;20227;-78
2021/12/01 09:01:00;;;;;;;5.90;5.25;;;8.90;99.90;;;;;;5041998;28;20237;-78
2021/12/01 09:03:27;;;;;;;5.63;5.13;;;9.40;99.90;;;;;;5046797;28;20723;-77
2021/12/01 09:05:55;;;;;;;5.78;5.15;;;10.40;99.90;;;;;;5045526;28;20219;-76
2021/12/01 09:08:24;;;;;;;6.47;5.03;;;11.70;99.90;;;;;;5045003;28;20234;-77
2021/12/01 09:10:54;;;;;;;4.90;4.50;;;13.40;99.90;;;;;;5045761;28;20235;-79
2021/12/01 09:13:23;;;;;;;5.00;4.60;;;15.10;99.90;;;;;;5045548;28;20223;-77
2021/12/01 09:15:52;;;;;;;6.15;4.65;;;16.20;99.90;;;;;;5046234;28;20289;-77
2021/12/01 09:18:20;;;;;;;7.22;4.97;;;16.90;99.90;;;;;;5041350;28;20222;-76
2021/12/01 09:20:47;;;;;;;7.00;4.88;;;17.10;97.90;;;;;;5046975;28;20223;-76
2021/12/01 09:23:15;;;;;;;5.85;4.43;;;17.50;96.80;;;;;;5049415;28;20238;-78
2021/12/01 09:25:44;;;;;;;5.85;3.97;;;18.10;94.90;;;;;;5047585;28;20229;-78
2021/12/01 09:28:12;;;;;;;5.43;4.22;;;18.40;92.10;;;;;;5047394;28;20230;-76
2021/12/01 09:30:39;;;;;;;4.65;4.22;;;18.30;92.10;;;;;;5046258;28;20226;-77
2021/12/01 09:33:07;;;;;;;5.10;4.40;;;18.60;91.00;;;;;;5046216;28;20243;-77
2021/12/01 09:35:35;;;;;;;5.25;4.60;;;18.80;89.50;;;;;;5047189;28;20257;-77
2021/12/01 09:38:02;;;;;;;6.47;4.65;;;18.50;89.70;;;;;;5056726;28;20219;-77
2021/12/01 09:40:29;;;;;;;5.32;4.43;;;18.10;87.50;;;;;;5046172;28;20234;-78
2021/12/01 09:42:56;;;;;;;5.05;4.38;;;17.30;90.10;;;;;;5043410;28;20222;-75
2021/12/01 09:45:26;;;;;;;5.15;4.65;;;16.50;91.00;;;;;;5043392;28;20232;-76
2021/12/01 09:47:54;;;;;;;8.75;4.82;;;15.10;92.50;;;;;;5047291;28;20755;-77
2021/12/01 09:50:23;;;;;;;9.45;5.43;;;14.00;94.90;;;;;;5041855;28;20234;-77
2021/12/01 09:52:51;;;;;;;5.45;4.93;;;12.70;96.80;;;;;;5041112;28;20222;-78
2021/12/01 09:55:18;;;;;;;7.13;5.30;;;11.70;99.50;;;;;;5046507;28;20230;-76
2021/12/01 09:57:57;;;;;;;5.30;4.80;;;11.10;99.90;;;;;;5046704;28;20227;-77
2021/12/01 10:00:24;;;;;;;7.25;5.57;;;11.20;99.90;;;;;;5041007;28;20242;-76
2021/12/01 10:02:51;;;;;;;6.68;5.57;;;10.80;99.90;;;;;;5045307;28;20246;-78
2021/12/01 10:05:52;;;;;;;5.82;4.68;;;10.10;99.90;;;;;;5045940;28;20246;-75
2021/12/01 10:08:21;;;;;;;6.72;5.50;;;9.60;99.90;;;;;;5044135;28;20357;-76
2021/12/01 10:10:50;;;;;;;5.57;5.03;;;9.50;99.90;;;;;;5045863;28;20234;-79
2021/12/01 10:13:24;;;;;;;6.07;5.07;;;9.60;99.90;;;;;;5045673;28;20231;-75
2021/12/01 10:15:53;;;;;;;5.97;5.07;;;10.00;99.90;;;;;;5047133;28;20223;-76
2021/12/01 10:18:20;;;;;;;6.20;5.60;;;10.10;99.90;;;;;;5047635;28;20235;-76
2021/12/01 10:21:02;;;;;;;5.07;4.68;;;10.20;99.90;;;;;;5038479;28;20223;-77
2021/12/01 10:23:30;;;;;;;5.00;4.50;;;10.20;99.90;;;;;;5046189;28;20276;-79
2021/12/01 10:25:57;;;;;;;5.72;5.22;;;10.30;99.90;;;;;;5051343;28;20227;-79
2021/12/01 10:28:35;;;;;;;5.55;4.70;;;10.50;99.90;;;;;;5045704;28;20304;-79
2021/12/01 10:31:02;;;;;;;7.32;4.97;;;10.50;99.90;;;;;;5043658;28;20241;-77
2021/12/01 10:33:30;;;;;;;5.60;5.10;;;10.40;99.90;;;;;;5045527;28;20237;-78
2021/12/01 10:36:01;;;;;;;7.43;5.88;;;10.40;99.90;;;;;;5043130;28;20226;-78
2021/12/01 10:38:29;;;;;;;5.25;4.75;;;10.40;99.90;;;;;;5045112;28;20227;-79
2021/12/01 10:41:09;;;;;;;6.05;5.13;;;10.50;99.90;;;;;;5044501;28;20225;-79
2021/12/01 10:43:39;;;;;;;5.70;5.20;;;10.30;99.90;;;;;;5044201;28;20683;-80
2021/12/01 10:46:08;;;;;;;5.45;4.95;;;10.10;99.90;;;;;;5041777;28;20243;-77
2021/12/01 10:48:36;;;;;;;5.78;5.18;;;10.00;99.90;;;;;;5043005;28;20254;-78
2021/12/01 10:51:05;;;;;;;5.05;4.65;;;10.00;99.90;;;;;;5044377;28;20768;-78
2021/12/01 10:53:32;;;;;;;6.50;4.88;;;9.80;99.90;;;;;;5041100;28;20239;-76
2021/12/01 10:56:03;;;;;;;5.35;4.88;;;9.80;99.90;;;;;;5043164;28;20226;-78
2021/12/01 10:58:35;;;;;;;5.65;4.90;;;9.80;99.90;;;;;;5042032;28;20305;-78
2021/12/01 11:01:06;;;;;;;4.90;4.50;;;10.00;99.90;;;;;;5044141;28;20237;-76
2021/12/01 11:03:35;;;;;;;5.60;5.05;;;10.10;99.90;;;;;;5038387;28;20293;-75
2021/12/01 11:06:18;;;;;;;5.93;4.55;;;9.80;99.90;;;;;;5044327;28;20740;-77
2021/12/01 11:08:48;;;;;;;5.80;5.30;;;9.60;99.90;;;;;;5042609;28;20230;-77
2021/12/01 11:11:19;;;;;;;5.82;5.32;;;9.70;99.90;;;;;;5045893;28;20227;-77
2021/12/01 11:13:48;;;;;;;5.15;4.65;;;9.80;99.90;;;;;;5042861;28;20696;-75
2021/12/01 11:16:17;;;;;;;5.40;4.60;;;10.20;99.90;;;;;;5045440;28;20230;-76
2021/12/01 11:18:47;;;;;;;6.15;5.55;;;10.20;99.90;;;;;;5045002;28;20249;-77
2021/12/01 11:21:18;;;;;;;5.40;4.90;;;10.20;99.90;;;;;;5044210;28;20670;-78
2021/12/01 11:23:47;;;;;;;6.32;5.43;;;10.20;99.90;;;;;;5050030;28;20705;-78
2021/12/01 11:26:17;;;;;;;6.03;5.43;;;10.20;99.90;;;;;;5048250;28;20234;-78
2021/12/01 11:28:46;;;;;;;5.40;4.90;;;10.20;99.90;;;;;;5050925;28;20234;-79
2021/12/01 11:31:18;;;;;;;5.68;5.10;;;10.10;99.90;;;;;;5050717;28;20223;-76
2021/12/01 11:33:46;;;;;;;5.70;5.10;;;10.20;99.90;;;;;;5044308;28;20236;-77
2021/12/01 11:36:17;;;;;;;5.90;5.07;;;10.20;99.90;;;;;;5045636;28;20215;-77
2021/12/01 11:38:49;;;;;;;5.53;5.03;;;10.40;99.90;;;;;;5047610;28;20230;-76
2021/12/01 11:41:16;;;;;;;5.10;4.60;;;10.60;99.90;;;;;;5048362;28;20234;-79
2021/12/01 11:43:43;;;;;;;5.78;4.90;;;10.70;99.90;;;;;;5052520;28;20230;-78
2021/12/01 11:46:11;;;;;;;5.13;4.72;;;10.90;99.90;;;;;;5048809;28;20992;-78
2021/12/01 11:48:45;;;;;;;5.50;5.10;;;10.70;99.90;;;;;;5046755;28;20314;-79
2021/12/01 11:51:19;;;;;;;6.38;4.93;;;10.60;99.90;;;;;;5039679;28;20228;-78
2021/12/01 11:53:48;;;;;;;6.30;5.55;;;10.50;99.90;;;;;;5043169;28;20210;-76
2021/12/01 11:56:20;;;;;;;5.85;5.25;;;10.40;99.90;;;;;;5046751;28;20226;-78
2021/12/01 11:59:18;;;;;;;5.10;4.60;;;10.30;99.90;;;;;;5046483;28;20222;-77
2021/12/01 12:01:48;;;;;;;7.00;4.20;;;10.50;99.90;;;;;;5043433;28;20284;-77
2021/12/01 12:04:26;;;;;;;5.57;5.05;;;10.70;99.90;;;;;;5047240;28;20223;-78
2021/12/01 12:07:00;;;;;;;5.30;4.80;;;10.80;99.90;;;;;;5044931;28;20752;-77
2021/12/01 12:09:29;;;;;;;5.97;4.72;;;10.80;99.90;;;;;;5043782;28;20222;-78
2021/12/01 12:11:57;;;;;;;5.55;4.55;;;10.80;99.90;;;;;;5044908;28;20251;-78
2021/12/01 12:14:26;;;;;;;5.97;4.90;;;10.80;99.90;;;;;;5064854;22;20243;-69
2021/12/01 12:17:08;;;;;;;5.63;5.10;;;10.80;99.90;;;;;;5012822;28;20236;-70
2021/12/01 12:19:55;;;;;;;5.32;4.55;;;10.70;99.90;;;;;;5017806;28;20234;-70
2021/12/01 12:22:31;;;;;;;5.88;4.30;;;10.80;99.90;;;;;;5011635;28;20246;-69
2021/12/01 12:24:58;;;;;;;5.32;4.82;;;10.80;99.90;;;;;;5016142;28;20250;-68
2021/12/01 12:27:34;;;;;;;5.18;4.68;;;10.80;99.90;;;;;;5009723;28;20228;-69
2021/12/01 12:30:04;;;;;;;5.75;5.20;;;10.70;99.90;;;;;;5008824;28;20227;-72
2021/12/01 12:32:31;;;;;;;4.95;4.50;;;10.20;99.90;;;;;;5006005;28;20228;-70
2021/12/01 12:35:01;;;;;;;5.55;5.05;;;9.80;99.90;;;;;;5006936;28;20969;-70
2021/12/01 12:37:33;;;;;;;5.47;4.97;;;9.40;99.90;;;;;;5005753;28;20228;-68
2021/12/01 12:40:02;;;;;;;5.70;5.18;;;9.00;99.90;;;;;;5009519;28;20221;-68
2021/12/01 12:42:29;;;;;;;6.07;5.10;;;8.50;99.90;;;;;;5004089;28;20239;-69
2021/12/01 12:44:58;;;;;;;6.35;5.53;;;8.30;99.90;;;;;;5010302;28;20227;-69
2021/12/01 12:47:30;;;;;;;5.63;4.90;;;8.10;99.90;;;;;;5005943;28;20259;-69
2021/12/01 12:50:02;;;;;;;7.55;5.32;;;8.00;99.90;;;;;;5007690;28;20307;-68
2021/12/01 12:52:39;;;;;;;5.13;4.72;;;8.00;99.90;;;;;;5008658;28;20236;-68
2021/12/01 12:55:09;;;;;;;5.88;5.30;;;8.00;99.90;;;;;;5010157;28;20238;-69
2021/12/01 12:57:56;;;;;;;6.05;5.22;;;7.80;99.90;;;;;;5005366;28;20251;-69
2021/12/01 13:00:27;;;;;;;5.82;5.22;;;7.70;99.90;;;;;;5007495;28;20220;-69
2021/12/01 13:02:55;;;;;;;5.05;4.60;;;7.70;99.90;;;;;;5005475;28;20227;-69
2021/12/01 13:05:34;;;;;;;5.45;4.95;;;7.60;99.90;;;;;;5007800;28;20236;-69
2021/12/01 13:08:03;;;;;;;5.78;4.97;;;7.70;99.90;;;;;;5002558;28;20665;-69
2021/12/01 13:10:37;;;;;;;5.20;4.70;;;7.80;99.90;;;;;;5009557;28;20224;-69